sensor_id;sensor_type;location;lat;lon;timestamp;temperature;humidity
4425;DHT22;2225;53.568;13.266;2022-08-05T00:00:18;26.80;84.10
4425;DHT22;2225;53.568;13.266;2022-08-05T00:02:46;26.80;83.60
4425;DHT22;2225;53.568;13.266;2022-08-05T00:05:18;26.80;83.70
4425;DHT22;2225;53.568;13.266;2022-08-05T00:08:06;26.80;83.40
4425;DHT22;2225;53.568;13.266;2022-08-05T00:10:55;26.90;83.60
4425;DHT22;2225;53.568;13.266;2022-08-05T00:13:29;26.90;84.80
4425;DHT22;2225;53.568;13.266;2022-08-05T00:16:07;26.90;85.40
4425;DHT22;2225;53.568;13.266;2022-08-05T00:18:45;26.90;84.60
4425;DHT22;2225;53.568;13.266;2022-08-05T00:21:15;26.90;85.60
4425;DHT22;2225;53.568;13.266;2022-08-05T00:23:45;26.90;85.40
4425;DHT22;2225;53.568;13.266;2022-08-05T00:26:32;26.90;85.60
4425;DHT22;2225;53.568;13.266;2022-08-05T00:28:59;26.90;86.40
4425;DHT22;2225;53.568;13.266;2022-08-05T00:31:27;26.90;87.10
4425;DHT22;2225;53.568;13.266;2022-08-05T00:34:14;26.90;87.50
4425;DHT22;2225;53.568;13.266;2022-08-05T00:37:01;26.90;87.80
4425;DHT22;2225;53.568;13.266;2022-08-05T00:39:39;26.80;87.40
4425;DHT22;2225;53.568;13.266;2022-08-05T00:42:10;26.80;87.00
4425;DHT22;2225;53.568;13.266;2022-08-05T00:44:57;26.80;88.40
4425;DHT22;2225;53.568;13.266;2022-08-05T00:47:24;26.80;88.70
4425;DHT22;2225;53.568;13.266;2022-08-05T00:50:11;26.80;88.80
4425;DHT22;2225;53.568;13.266;2022-08-05T00:52:39;26.70;89.20
4425;DHT22;2225;53.568;13.266;2022-08-05T00:55:06;26.70;89.10
4425;DHT22;2225;53.568;13.266;2022-08-05T00:57:33;26.70;88.80
4425;DHT22;2225;53.568;13.266;2022-08-05T01:00:20;26.70;88.90
4425;DHT22;2225;53.568;13.266;2022-08-05T01:02:51;26.70;89.60
4425;DHT22;2225;53.568;13.266;2022-08-05T01:05:18;26.70;90.20
4425;DHT22;2225;53.568;13.266;2022-08-05T01:07:46;26.60;90.10
4425;DHT22;2225;53.568;13.266;2022-08-05T01:10:58;26.60;90.00
4425;DHT22;2225;53.568;13.266;2022-08-05T01:13:48;26.60;90.30
4425;DHT22;2225;53.568;13.266;2022-08-05T01:16:46;26.60;90.40
4425;DHT22;2225;53.568;13.266;2022-08-05T01:22:17;26.50;89.90
4425;DHT22;2225;53.568;13.266;2022-08-05T01:33:50;26.50;90.60
4425;DHT22;2225;53.568;13.266;2022-08-05T01:36:28;26.50;90.80
4425;DHT22;2225;53.568;13.266;2022-08-05T01:38:59;26.50;90.80
4425;DHT22;2225;53.568;13.266;2022-08-05T01:41:30;26.50;90.80
4425;DHT22;2225;53.568;13.266;2022-08-05T01:44:00;26.50;90.80
4425;DHT22;2225;53.568;13.266;2022-08-05T01:46:29;26.50;90.70
4425;DHT22;2225;53.568;13.266;2022-08-05T01:49:15;26.50;90.70
4425;DHT22;2225;53.568;13.266;2022-08-05T01:51:56;26.50;91.80
4425;DHT22;2225;53.568;13.266;2022-08-05T01:54:31;26.50;91.40
4425;DHT22;2225;53.568;13.266;2022-08-05T01:57:13;26.40;91.40
4425;DHT22;2225;53.568;13.266;2022-08-05T02:00:06;26.40;91.40
4425;DHT22;2225;53.568;13.266;2022-08-05T02:02:40;26.40;91.20
4425;DHT22;2225;53.568;13.266;2022-08-05T02:05:19;26.40;91.20
4425;DHT22;2225;53.568;13.266;2022-08-05T02:07:49;26.40;91.20
4425;DHT22;2225;53.568;13.266;2022-08-05T02:10:30;26.40;91.30
4425;DHT22;2225;53.568;13.266;2022-08-05T02:13:04;26.50;91.20
4425;DHT22;2225;53.568;13.266;2022-08-05T02:16:19;26.50;91.40
4425;DHT22;2225;53.568;13.266;2022-08-05T02:18:57;26.50;92.10
4425;DHT22;2225;53.568;13.266;2022-08-05T02:21:35;26.50;91.70
4425;DHT22;2225;53.568;13.266;2022-08-05T02:24:16;26.40;91.50
4425;DHT22;2225;53.568;13.266;2022-08-05T02:26:51;26.40;91.60
4425;DHT22;2225;53.568;13.266;2022-08-05T02:29:23;26.50;91.70
4425;DHT22;2225;53.568;13.266;2022-08-05T02:32:12;26.40;91.60
4425;DHT22;2225;53.568;13.266;2022-08-05T02:34:59;26.40;91.90
4425;DHT22;2225;53.568;13.266;2022-08-05T02:37:41;26.40;92.20
4425;DHT22;2225;53.568;13.266;2022-08-05T02:40:18;26.30;92.30
4425;DHT22;2225;53.568;13.266;2022-08-05T02:42:46;26.30;92.10
4425;DHT22;2225;53.568;13.266;2022-08-05T02:45:20;26.30;92.00
4425;DHT22;2225;53.568;13.266;2022-08-05T02:47:51;26.30;92.20
4425;DHT22;2225;53.568;13.266;2022-08-05T02:50:38;26.30;92.20
4425;DHT22;2225;53.568;13.266;2022-08-05T02:53:10;26.30;92.70
4425;DHT22;2225;53.568;13.266;2022-08-05T02:55:46;26.30;92.60
4425;DHT22;2225;53.568;13.266;2022-08-05T02:58:25;26.20;92.80
4425;DHT22;2225;53.568;13.266;2022-08-05T03:00:55;26.20;92.90
4425;DHT22;2225;53.568;13.266;2022-08-05T03:03:28;26.10;93.00
4425;DHT22;2225;53.568;13.266;2022-08-05T03:06:16;26.10;93.20
4425;DHT22;2225;53.568;13.266;2022-08-05T03:09:03;26.00;93.40
4425;DHT22;2225;53.568;13.266;2022-08-05T03:11:33;26.00;93.20
4425;DHT22;2225;53.568;13.266;2022-08-05T03:14:20;26.00;93.10
4425;DHT22;2225;53.568;13.266;2022-08-05T03:16:47;26.00;93.00
4425;DHT22;2225;53.568;13.266;2022-08-05T03:19:17;26.00;92.90
4425;DHT22;2225;53.568;13.266;2022-08-05T03:22:02;26.00;93.00
4425;DHT22;2225;53.568;13.266;2022-08-05T03:24:42;26.10;93.10
4425;DHT22;2225;53.568;13.266;2022-08-05T03:27:13;26.10;93.00
4425;DHT22;2225;53.568;13.266;2022-08-05T03:29:41;26.10;93.00
4425;DHT22;2225;53.568;13.266;2022-08-05T03:32:29;26.10;93.00
4425;DHT22;2225;53.568;13.266;2022-08-05T03:34:57;26.10;92.90
4425;DHT22;2225;53.568;13.266;2022-08-05T03:37:26;26.10;93.00
4425;DHT22;2225;53.568;13.266;2022-08-05T03:39:58;26.20;93.00
4425;DHT22;2225;53.568;13.266;2022-08-05T03:42:28;26.20;93.10
4425;DHT22;2225;53.568;13.266;2022-08-05T03:44:58;26.20;93.00
4425;DHT22;2225;53.568;13.266;2022-08-05T03:47:46;26.20;93.10
4425;DHT22;2225;53.568;13.266;2022-08-05T03:50:14;26.20;93.00
4425;DHT22;2225;53.568;13.266;2022-08-05T03:52:58;26.20;93.10
4425;DHT22;2225;53.568;13.266;2022-08-05T03:55:52;26.20;93.10
4425;DHT22;2225;53.568;13.266;2022-08-05T03:58:45;26.20;93.10
4425;DHT22;2225;53.568;13.266;2022-08-05T04:01:13;26.20;93.00
4425;DHT22;2225;53.568;13.266;2022-08-05T04:03:47;26.20;92.70
4425;DHT22;2225;53.568;13.266;2022-08-05T04:06:35;26.20;92.50
4425;DHT22;2225;53.568;13.266;2022-08-05T04:09:03;26.20;92.00
4425;DHT22;2225;53.568;13.266;2022-08-05T04:11:35;26.20;91.50
4425;DHT22;2225;53.568;13.266;2022-08-05T04:14:13;26.20;91.30
4425;DHT22;2225;53.568;13.266;2022-08-05T04:16:43;26.20;91.20
4425;DHT22;2225;53.568;13.266;2022-08-05T04:19:11;26.20;91.30
4425;DHT22;2225;53.568;13.266;2022-08-05T04:21:39;26.10;91.50
4425;DHT22;2225;53.568;13.266;2022-08-05T04:24:26;26.10;91.50
4425;DHT22;2225;53.568;13.266;2022-08-05T04:26:54;26.00;91.40
4425;DHT22;2225;53.568;13.266;2022-08-05T04:29:23;26.00;91.50
4425;DHT22;2225;53.568;13.266;2022-08-05T04:31:52;25.90;91.50
4425;DHT22;2225;53.568;13.266;2022-08-05T04:34:22;25.90;91.70
4425;DHT22;2225;53.568;13.266;2022-08-05T04:37:01;25.90;92.30
4425;DHT22;2225;53.568;13.266;2022-08-05T04:39:29;25.90;92.20
4425;DHT22;2225;53.568;13.266;2022-08-05T04:41:57;25.80;92.10
4425;DHT22;2225;53.568;13.266;2022-08-05T04:44:24;25.80;92.20
4425;DHT22;2225;53.568;13.266;2022-08-05T04:46:57;25.80;92.50
4425;DHT22;2225;53.568;13.266;2022-08-05T04:49:25;25.80;92.90
4425;DHT22;2225;53.568;13.266;2022-08-05T04:52:13;25.70;92.40
4425;DHT22;2225;53.568;13.266;2022-08-05T04:54:40;25.70;92.30
4425;DHT22;2225;53.568;13.266;2022-08-05T04:57:07;25.70;92.80
4425;DHT22;2225;53.568;13.266;2022-08-05T04:59:34;25.60;93.10
4425;DHT22;2225;53.568;13.266;2022-08-05T05:02:05;25.60;93.10
4425;DHT22;2225;53.568;13.266;2022-08-05T05:04:52;25.50;93.00
4425;DHT22;2225;53.568;13.266;2022-08-05T05:07:28;25.50;93.20
4425;DHT22;2225;53.568;13.266;2022-08-05T05:09:58;25.50;93.30
4425;DHT22;2225;53.568;13.266;2022-08-05T05:12:27;25.50;93.30
4425;DHT22;2225;53.568;13.266;2022-08-05T05:14:54;25.50;93.40
4425;DHT22;2225;53.568;13.266;2022-08-05T05:17:21;25.50;93.40
4425;DHT22;2225;53.568;13.266;2022-08-05T05:20:10;25.50;93.40
4425;DHT22;2225;53.568;13.266;2022-08-05T05:22:38;25.50;93.50
4425;DHT22;2225;53.568;13.266;2022-08-05T05:25:10;25.50;93.60
4425;DHT22;2225;53.568;13.266;2022-08-05T05:27:43;25.50;93.40
4425;DHT22;2225;53.568;13.266;2022-08-05T05:30:22;25.50;93.70
4425;DHT22;2225;53.568;13.266;2022-08-05T05:32:58;25.40;93.50
4425;DHT22;2225;53.568;13.266;2022-08-05T05:35:42;25.40;93.60
4425;DHT22;2225;53.568;13.266;2022-08-05T05:38:10;25.40;93.60
4425;DHT22;2225;53.568;13.266;2022-08-05T05:40:40;25.40;93.70
4425;DHT22;2225;53.568;13.266;2022-08-05T05:43:17;25.30;93.80
4425;DHT22;2225;53.568;13.266;2022-08-05T05:46:05;25.20;93.90
4425;DHT22;2225;53.568;13.266;2022-08-05T05:48:44;25.20;94.20
4425;DHT22;2225;53.568;13.266;2022-08-05T05:51:24;25.20;94.40
4425;DHT22;2225;53.568;13.266;2022-08-05T05:53:53;25.20;94.80
4425;DHT22;2225;53.568;13.266;2022-08-05T05:56:28;25.20;94.70
4425;DHT22;2225;53.568;13.266;2022-08-05T05:59:06;25.20;94.80
4425;DHT22;2225;53.568;13.266;2022-08-05T06:01:40;25.20;94.80
4425;DHT22;2225;53.568;13.266;2022-08-05T06:04:23;25.20;94.90
4425;DHT22;2225;53.568;13.266;2022-08-05T06:06:50;25.20;94.80
4425;DHT22;2225;53.568;13.266;2022-08-05T06:09:17;25.20;94.80
4425;DHT22;2225;53.568;13.266;2022-08-05T06:12:01;25.20;94.70
4425;DHT22;2225;53.568;13.266;2022-08-05T06:14:29;25.10;94.60
4425;DHT22;2225;53.568;13.266;2022-08-05T06:16:57;25.10;94.70
4425;DHT22;2225;53.568;13.266;2022-08-05T06:19:25;25.10;94.70
4425;DHT22;2225;53.568;13.266;2022-08-05T06:22:05;25.10;94.60
4425;DHT22;2225;53.568;13.266;2022-08-05T06:24:33;25.10;94.60
4425;DHT22;2225;53.568;13.266;2022-08-05T06:27:01;25.10;94.50
4425;DHT22;2225;53.568;13.266;2022-08-05T06:29:29;25.10;94.50
4425;DHT22;2225;53.568;13.266;2022-08-05T06:32:17;25.00;94.50
4425;DHT22;2225;53.568;13.266;2022-08-05T06:34:52;25.00;94.40
4425;DHT22;2225;53.568;13.266;2022-08-05T06:37:23;24.90;94.40
4425;DHT22;2225;53.568;13.266;2022-08-05T06:40:12;24.90;94.50
4425;DHT22;2225;53.568;13.266;2022-08-05T06:42:39;24.90;94.50
4425;DHT22;2225;53.568;13.266;2022-08-05T06:45:07;24.90;94.60
4425;DHT22;2225;53.568;13.266;2022-08-05T06:47:46;24.90;94.70
4425;DHT22;2225;53.568;13.266;2022-08-05T06:50:33;24.90;94.60
4425;DHT22;2225;53.568;13.266;2022-08-05T06:53:00;24.90;94.40
4425;DHT22;2225;53.568;13.266;2022-08-05T06:55:47;25.00;94.30
4425;DHT22;2225;53.568;13.266;2022-08-05T06:58:14;25.00;94.10
4425;DHT22;2225;53.568;13.266;2022-08-05T07:01:02;25.00;94.10
4425;DHT22;2225;53.568;13.266;2022-08-05T07:03:30;25.00;94.20
4425;DHT22;2225;53.568;13.266;2022-08-05T07:05:59;25.00;94.20
4425;DHT22;2225;53.568;13.266;2022-08-05T07:08:41;25.00;94.30
4425;DHT22;2225;53.568;13.266;2022-08-05T07:11:17;25.00;94.20
4425;DHT22;2225;53.568;13.266;2022-08-05T07:13:48;25.00;94.00
4425;DHT22;2225;53.568;13.266;2022-08-05T07:16:54;25.00;94.10
4425;DHT22;2225;53.568;13.266;2022-08-05T07:19:46;25.10;94.10
4425;DHT22;2225;53.568;13.266;2022-08-05T07:22:33;25.10;94.20
4425;DHT22;2225;53.568;13.266;2022-08-05T07:25:01;25.10;94.10
4425;DHT22;2225;53.568;13.266;2022-08-05T07:27:49;25.10;94.20
4425;DHT22;2225;53.568;13.266;2022-08-05T07:30:31;25.20;94.20
4425;DHT22;2225;53.568;13.266;2022-08-05T07:33:08;25.20;94.40
4425;DHT22;2225;53.568;13.266;2022-08-05T07:35:43;25.20;94.20
4425;DHT22;2225;53.568;13.266;2022-08-05T07:38:31;25.20;94.20
4425;DHT22;2225;53.568;13.266;2022-08-05T07:41:11;25.20;94.00
4425;DHT22;2225;53.568;13.266;2022-08-05T07:44:04;25.20;94.10
4425;DHT22;2225;53.568;13.266;2022-08-05T07:46:43;25.20;94.20
4425;DHT22;2225;53.568;13.266;2022-08-05T07:49:14;25.20;94.10
4425;DHT22;2225;53.568;13.266;2022-08-05T07:51:43;25.20;94.20
4425;DHT22;2225;53.568;13.266;2022-08-05T07:54:21;25.20;94.40
4425;DHT22;2225;53.568;13.266;2022-08-05T07:57:02;25.20;94.30
4425;DHT22;2225;53.568;13.266;2022-08-05T07:59:49;25.20;94.20
4425;DHT22;2225;53.568;13.266;2022-08-05T08:02:16;25.20;94.10
4425;DHT22;2225;53.568;13.266;2022-08-05T08:04:47;25.20;94.10
4425;DHT22;2225;53.568;13.266;2022-08-05T08:07:15;25.30;94.40
4425;DHT22;2225;53.568;13.266;2022-08-05T08:09:49;25.30;94.50
4425;DHT22;2225;53.568;13.266;2022-08-05T08:12:18;25.30;94.40
4425;DHT22;2225;53.568;13.266;2022-08-05T08:15:03;25.30;94.40
4425;DHT22;2225;53.568;13.266;2022-08-05T08:17:39;25.40;94.50
4425;DHT22;2225;53.568;13.266;2022-08-05T08:20:19;25.40;94.30
4425;DHT22;2225;53.568;13.266;2022-08-05T08:23:07;25.40;94.20
4425;DHT22;2225;53.568;13.266;2022-08-05T08:25:54;25.40;94.00
4425;DHT22;2225;53.568;13.266;2022-08-05T08:28:26;25.40;93.90
4425;DHT22;2225;53.568;13.266;2022-08-05T08:31:01;25.40;93.80
4425;DHT22;2225;53.568;13.266;2022-08-05T08:33:30;25.40;93.80
4425;DHT22;2225;53.568;13.266;2022-08-05T08:36:05;25.50;94.10
4425;DHT22;2225;53.568;13.266;2022-08-05T08:38:53;25.50;94.20
4425;DHT22;2225;53.568;13.266;2022-08-05T08:41:22;25.60;94.40
4425;DHT22;2225;53.568;13.266;2022-08-05T08:44:13;25.60;94.30
4425;DHT22;2225;53.568;13.266;2022-08-05T08:47:03;25.70;95.50
4425;DHT22;2225;53.568;13.266;2022-08-05T08:49:54;25.80;94.90
4425;DHT22;2225;53.568;13.266;2022-08-05T08:52:46;25.90;94.90
4425;DHT22;2225;53.568;13.266;2022-08-05T08:55:19;26.00;94.80
4425;DHT22;2225;53.568;13.266;2022-08-05T08:58:08;26.10;94.80
4425;DHT22;2225;53.568;13.266;2022-08-05T09:00:39;26.20;94.60
4425;DHT22;2225;53.568;13.266;2022-08-05T09:03:09;26.30;94.40
4425;DHT22;2225;53.568;13.266;2022-08-05T09:05:46;26.50;94.40
4425;DHT22;2225;53.568;13.266;2022-08-05T09:08:33;26.50;94.10
4425;DHT22;2225;53.568;13.266;2022-08-05T09:11:02;26.60;94.30
4425;DHT22;2225;53.568;13.266;2022-08-05T09:13:33;26.80;93.70
4425;DHT22;2225;53.568;13.266;2022-08-05T09:16:21;26.80;93.20
4425;DHT22;2225;53.568;13.266;2022-08-05T09:18:52;27.00;93.10
4425;DHT22;2225;53.568;13.266;2022-08-05T09:21:21;27.00;93.00
4425;DHT22;2225;53.568;13.266;2022-08-05T09:24:08;27.10;92.30
4425;DHT22;2225;53.568;13.266;2022-08-05T09:26:35;27.20;92.10
4425;DHT22;2225;53.568;13.266;2022-08-05T09:29:05;27.30;92.40
4425;DHT22;2225;53.568;13.266;2022-08-05T09:31:34;27.40;92.70
4425;DHT22;2225;53.568;13.266;2022-08-05T09:34:21;27.40;91.30
4425;DHT22;2225;53.568;13.266;2022-08-05T09:36:51;27.60;91.20
4425;DHT22;2225;53.568;13.266;2022-08-05T09:39:24;27.60;91.00
4425;DHT22;2225;53.568;13.266;2022-08-05T09:42:07;27.60;91.00
4425;DHT22;2225;53.568;13.266;2022-08-05T09:44:48;27.70;90.70
4425;DHT22;2225;53.568;13.266;2022-08-05T09:47:21;27.70;90.30
4425;DHT22;2225;53.568;13.266;2022-08-05T09:49:51;27.70;91.10
4425;DHT22;2225;53.568;13.266;2022-08-05T09:52:33;27.70;91.30
4425;DHT22;2225;53.568;13.266;2022-08-05T09:55:11;27.80;91.00
4425;DHT22;2225;53.568;13.266;2022-08-05T09:57:58;27.80;90.90
4425;DHT22;2225;53.568;13.266;2022-08-05T10:00:26;27.90;90.80
4425;DHT22;2225;53.568;13.266;2022-08-05T10:02:56;27.90;90.70
4425;DHT22;2225;53.568;13.266;2022-08-05T10:05:26;27.90;90.80
4425;DHT22;2225;53.568;13.266;2022-08-05T10:07:56;27.90;90.40
4425;DHT22;2225;53.568;13.266;2022-08-05T10:10:48;27.90;90.30
4425;DHT22;2225;53.568;13.266;2022-08-05T10:13:46;28.00;90.50
4425;DHT22;2225;53.568;13.266;2022-08-05T10:16:32;28.00;90.40
4425;DHT22;2225;53.568;13.266;2022-08-05T10:19:08;28.00;91.00
4425;DHT22;2225;53.568;13.266;2022-08-05T10:21:37;28.10;91.00
4425;DHT22;2225;53.568;13.266;2022-08-05T10:24:10;28.10;91.50
4425;DHT22;2225;53.568;13.266;2022-08-05T10:26:42;28.30;91.20
4425;DHT22;2225;53.568;13.266;2022-08-05T10:29:19;28.40;90.60
4425;DHT22;2225;53.568;13.266;2022-08-05T10:32:07;28.50;90.70
4425;DHT22;2225;53.568;13.266;2022-08-05T10:34:55;28.60;88.00
4425;DHT22;2225;53.568;13.266;2022-08-05T10:37:28;28.80;88.50
4425;DHT22;2225;53.568;13.266;2022-08-05T10:46:06;28.90;86.40
4425;DHT22;2225;53.568;13.266;2022-08-05T10:48:41;28.90;85.60
4425;DHT22;2225;53.568;13.266;2022-08-05T10:51:24;28.90;86.40
4425;DHT22;2225;53.568;13.266;2022-08-05T10:53:59;29.00;86.00
4425;DHT22;2225;53.568;13.266;2022-08-05T10:56:46;29.00;85.20
4425;DHT22;2225;53.568;13.266;2022-08-05T10:59:30;29.10;84.90
4425;DHT22;2225;53.568;13.266;2022-08-05T11:02:17;29.10;85.30
4425;DHT22;2225;53.568;13.266;2022-08-05T11:05:07;29.20;85.50
4425;DHT22;2225;53.568;13.266;2022-08-05T11:07:58;29.30;84.20
4425;DHT22;2225;53.568;13.266;2022-08-05T11:10:50;29.40;82.30
4425;DHT22;2225;53.568;13.266;2022-08-05T11:13:42;29.50;81.70
4425;DHT22;2225;53.568;13.266;2022-08-05T11:16:24;29.60;81.70
4425;DHT22;2225;53.568;13.266;2022-08-05T11:19:29;29.60;82.80
4425;DHT22;2225;53.568;13.266;2022-08-05T11:22:45;29.70;82.10
4425;DHT22;2225;53.568;13.266;2022-08-05T11:33:29;29.90;80.00
4425;DHT22;2225;53.568;13.266;2022-08-05T11:36:59;29.90;78.20
4425;DHT22;2225;53.568;13.266;2022-08-05T11:39:54;29.90;78.90
4425;DHT22;2225;53.568;13.266;2022-08-05T11:42:31;29.80;78.40
4425;DHT22;2225;53.568;13.266;2022-08-05T11:45:06;29.60;78.20
4425;DHT22;2225;53.568;13.266;2022-08-05T11:47:55;29.60;78.80
4425;DHT22;2225;53.568;13.266;2022-08-05T11:50:24;29.50;78.70
4425;DHT22;2225;53.568;13.266;2022-08-05T11:52:51;29.40;79.80
4425;DHT22;2225;53.568;13.266;2022-08-05T11:55:23;29.30;80.70
4425;DHT22;2225;53.568;13.266;2022-08-05T11:58:02;29.20;81.00
4425;DHT22;2225;53.568;13.266;2022-08-05T12:00:37;29.20;81.30
4425;DHT22;2225;53.568;13.266;2022-08-05T12:03:17;29.10;81.30
4425;DHT22;2225;53.568;13.266;2022-08-05T12:06:06;29.20;81.30
4425;DHT22;2225;53.568;13.266;2022-08-05T12:08:47;29.20;82.20
4425;DHT22;2225;53.568;13.266;2022-08-05T12:11:26;29.30;81.70
4425;DHT22;2225;53.568;13.266;2022-08-05T12:14:07;29.30;80.20
4425;DHT22;2225;53.568;13.266;2022-08-05T12:16:40;29.40;79.50
4425;DHT22;2225;53.568;13.266;2022-08-05T12:19:12;29.40;79.80
4425;DHT22;2225;53.568;13.266;2022-08-05T12:21:59;29.50;80.70
4425;DHT22;2225;53.568;13.266;2022-08-05T12:24:27;29.50;81.40
4425;DHT22;2225;53.568;13.266;2022-08-05T12:26:55;29.60;81.10
4425;DHT22;2225;53.568;13.266;2022-08-05T12:29:25;29.60;80.20
4425;DHT22;2225;53.568;13.266;2022-08-05T12:31:55;29.60;79.90
4425;DHT22;2225;53.568;13.266;2022-08-05T12:34:25;29.60;80.20
4425;DHT22;2225;53.568;13.266;2022-08-05T12:37:01;29.60;79.20
4425;DHT22;2225;53.568;13.266;2022-08-05T12:39:43;29.60;79.50
4425;DHT22;2225;53.568;13.266;2022-08-05T12:42:19;29.60;79.50
4425;DHT22;2225;53.568;13.266;2022-08-05T12:44:46;29.50;79.20
4425;DHT22;2225;53.568;13.266;2022-08-05T12:47:26;29.50;78.80
4425;DHT22;2225;53.568;13.266;2022-08-05T12:49:56;29.40;78.90
4425;DHT22;2225;53.568;13.266;2022-08-05T12:52:34;29.40;79.10
4425;DHT22;2225;53.568;13.266;2022-08-05T12:55:19;29.40;79.60
4425;DHT22;2225;53.568;13.266;2022-08-05T12:57:55;29.40;79.40
4425;DHT22;2225;53.568;13.266;2022-08-05T13:00:45;29.40;80.30
4425;DHT22;2225;53.568;13.266;2022-08-05T13:03:37;29.40;79.30
4425;DHT22;2225;53.568;13.266;2022-08-05T13:06:15;29.30;79.40
4425;DHT22;2225;53.568;13.266;2022-08-05T13:08:46;29.30;79.10
4425;DHT22;2225;53.568;13.266;2022-08-05T13:11:19;29.30;78.90
4425;DHT22;2225;53.568;13.266;2022-08-05T13:14:24;29.30;78.90
4425;DHT22;2225;53.568;13.266;2022-08-05T13:17:07;29.20;79.10
4425;DHT22;2225;53.568;13.266;2022-08-05T13:19:36;29.10;79.50
4425;DHT22;2225;53.568;13.266;2022-08-05T13:22:20;29.00;79.50
4425;DHT22;2225;53.568;13.266;2022-08-05T13:24:56;28.90;80.00
4425;DHT22;2225;53.568;13.266;2022-08-05T13:27:45;28.90;79.90
4425;DHT22;2225;53.568;13.266;2022-08-05T13:30:18;28.80;80.90
4425;DHT22;2225;53.568;13.266;2022-08-05T13:33:04;28.80;80.50
4425;DHT22;2225;53.568;13.266;2022-08-05T13:35:31;28.80;80.40
4425;DHT22;2225;53.568;13.266;2022-08-05T13:38:12;28.90;81.00
4425;DHT22;2225;53.568;13.266;2022-08-05T13:40:57;29.00;80.00
4425;DHT22;2225;53.568;13.266;2022-08-05T13:43:25;29.10;79.40
4425;DHT22;2225;53.568;13.266;2022-08-05T13:46:13;29.20;79.00
4425;DHT22;2225;53.568;13.266;2022-08-05T13:48:41;29.30;79.20
4425;DHT22;2225;53.568;13.266;2022-08-05T13:51:29;29.30;78.60
4425;DHT22;2225;53.568;13.266;2022-08-05T13:54:10;29.20;78.20
4425;DHT22;2225;53.568;13.266;2022-08-05T13:56:41;29.20;78.30
4425;DHT22;2225;53.568;13.266;2022-08-05T13:59:16;29.20;78.60
4425;DHT22;2225;53.568;13.266;2022-08-05T14:01:47;29.10;79.60
4425;DHT22;2225;53.568;13.266;2022-08-05T14:04:35;29.10;78.70
4425;DHT22;2225;53.568;13.266;2022-08-05T14:07:34;29.10;78.90
4425;DHT22;2225;53.568;13.266;2022-08-05T14:10:24;29.10;78.70
4425;DHT22;2225;53.568;13.266;2022-08-05T14:12:55;29.00;78.60
4425;DHT22;2225;53.568;13.266;2022-08-05T14:15:23;29.00;78.30
4425;DHT22;2225;53.568;13.266;2022-08-05T14:18:11;28.90;78.70
4425;DHT22;2225;53.568;13.266;2022-08-05T14:20:47;28.70;78.80
4425;DHT22;2225;53.568;13.266;2022-08-05T14:23:20;28.60;78.80
4425;DHT22;2225;53.568;13.266;2022-08-05T14:25:55;28.50;79.20
4425;DHT22;2225;53.568;13.266;2022-08-05T14:28:28;28.40;80.20
4425;DHT22;2225;53.568;13.266;2022-08-05T14:30:56;28.30;80.00
4425;DHT22;2225;53.568;13.266;2022-08-05T14:33:24;28.20;79.70
4425;DHT22;2225;53.568;13.266;2022-08-05T14:35:51;28.20;79.90
4425;DHT22;2225;53.568;13.266;2022-08-05T14:38:23;28.00;80.10
4425;DHT22;2225;53.568;13.266;2022-08-05T14:41:03;28.00;80.60
4425;DHT22;2225;53.568;13.266;2022-08-05T14:43:36;27.90;80.70
4425;DHT22;2225;53.568;13.266;2022-08-05T14:46:24;27.80;80.00
4425;DHT22;2225;53.568;13.266;2022-08-05T14:49:00;27.70;79.80
4425;DHT22;2225;53.568;13.266;2022-08-05T14:51:34;27.60;79.60
4425;DHT22;2225;53.568;13.266;2022-08-05T14:54:04;27.50;79.80
4425;DHT22;2225;53.568;13.266;2022-08-05T14:56:51;27.40;80.20
4425;DHT22;2225;53.568;13.266;2022-08-05T14:59:20;27.20;80.50
4425;DHT22;2225;53.568;13.266;2022-08-05T15:01:47;27.10;81.10
4425;DHT22;2225;53.568;13.266;2022-08-05T15:04:18;27.00;81.40
4425;DHT22;2225;53.568;13.266;2022-08-05T15:06:49;26.90;82.30
4425;DHT22;2225;53.568;13.266;2022-08-05T15:09:17;26.70;82.50
4425;DHT22;2225;53.568;13.266;2022-08-05T15:12:05;26.60;83.20
4425;DHT22;2225;53.568;13.266;2022-08-05T15:14:35;26.40;83.80
4425;DHT22;2225;53.568;13.266;2022-08-05T15:17:19;26.30;84.80
4425;DHT22;2225;53.568;13.266;2022-08-05T15:20:08;26.10;84.80
4425;DHT22;2225;53.568;13.266;2022-08-05T15:22:45;25.90;84.10
4425;DHT22;2225;53.568;13.266;2022-08-05T15:25:20;25.70;84.40
4425;DHT22;2225;53.568;13.266;2022-08-05T15:28:07;25.60;84.10
4425;DHT22;2225;53.568;13.266;2022-08-05T15:30:40;25.40;84.20
4425;DHT22;2225;53.568;13.266;2022-08-05T15:33:08;25.30;84.20
4425;DHT22;2225;53.568;13.266;2022-08-05T15:35:37;25.20;83.90
4425;DHT22;2225;53.568;13.266;2022-08-05T15:38:11;25.00;83.40
4425;DHT22;2225;53.568;13.266;2022-08-05T15:40:58;24.80;83.90
4425;DHT22;2225;53.568;13.266;2022-08-05T15:43:45;24.70;84.40
4425;DHT22;2225;53.568;13.266;2022-08-05T15:46:13;24.60;85.10
4425;DHT22;2225;53.568;13.266;2022-08-05T15:48:41;24.50;85.30
4425;DHT22;2225;53.568;13.266;2022-08-05T15:51:28;24.40;84.60
4425;DHT22;2225;53.568;13.266;2022-08-05T15:54:15;24.30;84.40
4425;DHT22;2225;53.568;13.266;2022-08-05T15:56:42;24.20;83.60
4425;DHT22;2225;53.568;13.266;2022-08-05T15:59:09;24.20;83.20
4425;DHT22;2225;53.568;13.266;2022-08-05T16:01:49;24.10;83.10
4425;DHT22;2225;53.568;13.266;2022-08-05T16:04:19;24.00;82.90
4425;DHT22;2225;53.568;13.266;2022-08-05T16:06:52;24.00;83.30
4425;DHT22;2225;53.568;13.266;2022-08-05T16:09:21;24.00;83.60
4425;DHT22;2225;53.568;13.266;2022-08-05T16:11:50;24.00;83.60
4425;DHT22;2225;53.568;13.266;2022-08-05T16:14:20;23.90;83.70
4425;DHT22;2225;53.568;13.266;2022-08-05T16:16:48;23.90;84.10
4425;DHT22;2225;53.568;13.266;2022-08-05T16:19:15;24.00;84.00
4425;DHT22;2225;53.568;13.266;2022-08-05T16:22:03;24.00;83.50
4425;DHT22;2225;53.568;13.266;2022-08-05T16:24:35;24.00;83.20
4425;DHT22;2225;53.568;13.266;2022-08-05T16:27:16;24.00;83.10
4425;DHT22;2225;53.568;13.266;2022-08-05T16:29:43;24.00;82.70
4425;DHT22;2225;53.568;13.266;2022-08-05T16:32:17;24.00;82.80
4425;DHT22;2225;53.568;13.266;2022-08-05T16:34:55;23.90;83.20
4425;DHT22;2225;53.568;13.266;2022-08-05T16:37:22;23.90;82.90
4425;DHT22;2225;53.568;13.266;2022-08-05T16:40:10;23.80;83.10
4425;DHT22;2225;53.568;13.266;2022-08-05T16:42:54;23.80;83.30
4425;DHT22;2225;53.568;13.266;2022-08-05T16:45:21;23.80;83.30
4425;DHT22;2225;53.568;13.266;2022-08-05T16:48:08;23.80;83.40
4425;DHT22;2225;53.568;13.266;2022-08-05T16:50:36;23.70;83.50
4425;DHT22;2225;53.568;13.266;2022-08-05T16:53:03;23.70;83.70
4425;DHT22;2225;53.568;13.266;2022-08-05T16:55:48;23.70;84.00
4425;DHT22;2225;53.568;13.266;2022-08-05T16:58:15;23.70;84.10
4425;DHT22;2225;53.568;13.266;2022-08-05T17:00:45;23.60;84.20
4425;DHT22;2225;53.568;13.266;2022-08-05T17:03:14;23.50;84.10
4425;DHT22;2225;53.568;13.266;2022-08-05T17:05:46;23.50;84.30
4425;DHT22;2225;53.568;13.266;2022-08-05T17:08:20;23.40;84.40
4425;DHT22;2225;53.568;13.266;2022-08-05T17:11:08;23.40;84.80
4425;DHT22;2225;53.568;13.266;2022-08-05T17:13:45;23.40;85.00